Time;durP1;ratioP1;P1;durP2;ratioP2;P2;SDS_P1;SDS_P2;PMS_P1;PMS_P2;Temp;Humidity;BMP_temperature;BMP_pressure;BME280_temperature;BME280_humidity;BME280_pressure;Samples;Min_cycle;Max_cycle;Signal;HPM_P1;HPM_P2
2022/08/02 00:00:46;;;;;;;3.65;0.98;;;;;;;20.85;94.08;100527.06;20943436;28;20055;-80
2022/08/02 00:10:48;;;;;;;1.65;1.02;;;;;;;20.59;96.65;100512.53;20955285;28;20060;-81
2022/08/02 00:20:49;;;;;;;1.90;0.90;;;;;;;20.41;98.89;100511.72;20976488;28;20133;-81
2022/08/02 00:30:51;;;;;;;1.92;1.00;;;;;;;20.18;100.00;100512.97;20964942;28;20045;-80
2022/08/02 00:40:53;;;;;;;4.88;1.30;;;;;;;20.03;100.00;100525.28;20961791;28;20049;-81
2022/08/02 00:50:58;;;;;;;2.65;1.17;;;;;;;20.04;100.00;100532.31;20951446;28;20045;-82
2022/08/02 01:01:00;;;;;;;3.42;1.20;;;;;;;20.12;100.00;100543.41;20950767;28;20460;-80
2022/08/02 01:11:02;;;;;;;2.05;1.10;;;;;;;20.18;100.00;100551.06;20936570;28;20417;-82
2022/08/02 01:21:03;;;;;;;2.83;0.98;;;;;;;20.12;100.00;100546.09;20942674;28;20052;-82
2022/08/02 01:31:05;;;;;;;2.30;1.20;;;;;;;19.98;100.00;100556.56;20951109;28;20564;-79
2022/08/02 01:41:06;;;;;;;4.47;1.30;;;;;;;19.90;100.00;100542.81;20941492;28;20036;-80
2022/08/02 01:51:07;;;;;;;5.88;1.50;;;;;;;19.83;100.00;100544.06;20936683;28;20081;-80
2022/08/02 02:01:09;;;;;;;4.85;1.60;;;;;;;19.72;100.00;100548.13;20946481;28;20049;-80
2022/08/02 02:11:15;;;;;;;3.30;1.10;;;;;;;19.62;100.00;100549.53;20954386;28;20044;-80
2022/08/02 02:21:36;;;;;;;3.35;1.40;;;;;;;19.48;100.00;100555.50;20962722;28;20041;-81
2022/08/02 02:31:41;;;;;;;5.45;1.65;;;;;;;19.09;100.00;100558.34;20953074;28;20040;-81
2022/08/02 02:41:42;;;;;;;3.95;1.20;;;;;;;19.01;100.00;100555.19;20930051;28;20051;-81
2022/08/02 02:51:44;;;;;;;4.30;1.48;;;;;;;18.97;100.00;100561.56;20951238;28;20128;-80
2022/08/02 03:01:45;;;;;;;4.32;1.70;;;;;;;18.96;100.00;100562.50;20959092;28;20416;-80
2022/08/02 03:11:57;;;;;;;2.83;1.52;;;;;;;18.51;100.00;100555.75;20964558;28;20538;-80
2022/08/02 03:21:59;;;;;;;4.00;1.63;;;;;;;18.33;100.00;100551.28;20943174;28;20105;-80
2022/08/02 03:32:00;;;;;;;3.70;1.90;;;;;;;18.29;100.00;100566.47;20953366;28;20072;-80
2022/08/02 03:42:02;;;;;;;4.78;1.63;;;;;;;18.14;100.00;100575.97;20931408;28;20041;-79
2022/08/02 03:52:03;;;;;;;3.33;1.70;;;;;;;18.12;100.00;100564.59;20949801;28;20045;-80
2022/08/02 04:02:04;;;;;;;4.88;1.63;;;;;;;17.98;100.00;100582.03;20922293;28;20041;-80
2022/08/02 04:12:06;;;;;;;3.15;1.50;;;;;;;18.02;100.00;100567.72;20970635;28;20075;-80
2022/08/02 04:22:08;;;;;;;6.60;2.00;;;;;;;18.20;100.00;100562.47;20944514;28;20037;-80
2022/08/02 04:32:10;;;;;;;3.95;1.60;;;;;;;18.40;100.00;100560.72;20943668;28;20567;-80
2022/08/02 04:42:15;;;;;;;3.88;1.70;;;;;;;18.62;100.00;100573.81;21052204;22;20036;-73
2022/08/02 04:52:16;;;;;;;3.05;1.70;;;;;;;19.14;100.00;100576.69;20979687;28;20047;-73
2022/08/02 05:02:17;;;;;;;5.35;1.70;;;;;;;19.13;100.00;100586.47;20978142;28;20065;-71
2022/08/02 05:12:21;;;;;;;3.72;1.65;;;;;;;19.30;100.00;100584.78;20978711;28;20052;-71
2022/08/02 05:22:23;;;;;;;;;;;;;;;19.75;100.00;100583.47;20979908;28;20094;-71
2022/08/02 05:32:25;;;;;;;2.58;1.45;;;;;;;20.29;100.00;100579.72;20976049;28;19920;-71
2022/08/02 05:42:26;;;;;;;4.13;2.28;;;;;;;20.33;100.00;100580.44;20974598;28;20044;-70
2022/08/02 05:52:28;;;;;;;6.40;2.70;;;;;;;20.40;100.00;100581.81;20968921;28;20483;-70
2022/08/02 06:02:29;;;;;;;6.32;2.92;;;;;;;20.58;100.00;100602.13;20968346;28;20052;-71
2022/08/02 06:12:31;;;;;;;5.30;3.25;;;;;;;20.67;100.00;100598.97;20972373;28;20563;-71
2022/08/02 06:22:32;;;;;;;6.50;3.40;;;;;;;20.80;99.69;100590.34;20946210;28;20074;-70
2022/08/02 06:32:38;;;;;;;9.48;5.85;;;;;;;20.86;97.18;100606.81;20916781;28;20052;-71
2022/08/02 06:42:39;;;;;;;9.75;5.65;;;;;;;21.15;97.70;100607.00;20981291;28;20565;-71
2022/08/02 06:52:40;;;;;;;7.03;4.90;;;;;;;21.42;95.79;100601.94;20978811;28;20060;-71
2022/08/02 07:02:42;;;;;;;10.55;5.57;;;;;;;21.51;93.40;100609.38;20969708;28;20052;-71
2022/08/02 07:12:43;;;;;;;9.68;5.72;;;;;;;21.71;92.62;100606.44;20973777;28;20484;-70
2022/08/02 07:22:44;;;;;;;10.93;5.72;;;;;;;21.96;90.39;100610.31;20927176;28;20509;-71
2022/08/02 07:32:45;;;;;;;9.90;6.85;;;;;;;22.27;86.92;100606.69;20901224;28;20064;-71
2022/08/02 07:42:47;;;;;;;8.82;5.50;;;;;;;22.56;85.11;100615.53;20900593;28;20084;-71
2022/08/02 07:52:48;;;;;;;7.35;5.43;;;;;;;22.75;83.90;100602.75;20903099;28;20068;-70
2022/08/02 08:02:58;;;;;;;9.77;4.00;;;;;;;22.98;80.30;100606.69;20929410;28;20041;-71
2022/08/02 08:12:59;;;;;;;5.88;3.90;;;;;;;23.28;76.33;100601.19;20977448;28;20140;-70
2022/08/02 08:23:01;;;;;;;7.55;3.45;;;;;;;23.41;70.36;100585.19;20980362;28;20410;-70
2022/08/02 08:33:03;;;;;;;6.05;2.83;;;;;;;23.74;71.36;100589.28;20979374;28;20044;-70
2022/08/02 08:43:04;;;;;;;8.40;3.30;;;;;;;24.13;71.26;100591.03;20978481;28;20037;-70
2022/08/02 08:53:06;;;;;;;6.07;3.28;;;;;;;24.44;66.70;100579.09;20978397;28;20622;-70
2022/08/02 09:03:07;;;;;;;4.30;2.60;;;;;;;25.05;64.01;100585.34;20976679;28;20394;-70
2022/08/02 09:13:09;;;;;;;5.43;3.03;;;;;;;25.38;59.84;100588.38;20958971;28;20229;-69
2022/08/02 09:23:30;;;;;;;4.90;2.70;;;;;;;24.82;59.89;100584.38;20970729;28;20682;-69
2022/08/02 09:33:32;;;;;;;6.35;2.75;;;;;;;25.36;60.53;100568.88;20923532;28;20059;-69
2022/08/02 09:43:33;;;;;;;6.15;2.88;;;;;;;25.44;57.35;100553.06;20892039;28;20049;-70
2022/08/02 09:53:35;;;;;;;4.28;2.53;;;;;;;26.26;54.51;100552.09;20891006;28;20083;-70
2022/08/02 10:03:36;;;;;;;4.85;3.05;;;;;;;26.25;54.22;100544.13;20889575;28;20059;-70
2022/08/02 10:13:40;;;;;;;;;;;;;;;26.53;53.17;100548.19;20889073;28;20451;-70
2022/08/02 10:23:41;;;;;;;4.60;2.80;;;;;;;26.53;50.39;100538.31;20889016;28;20361;-71
2022/08/02 10:33:42;;;;;;;6.05;2.58;;;;;;;26.49;50.21;100531.47;20885833;28;20055;-70
2022/08/02 10:43:50;;;;;;;5.72;2.97;;;;;;;26.89;48.28;100516.66;20887775;28;20098;-70
2022/08/02 10:53:51;;;;;;;4.32;2.33;;;;;;;27.92;47.92;100501.66;20888627;28;20088;-70
2022/08/02 11:03:52;;;;;;;6.65;2.33;;;;;;;28.22;46.28;100491.88;20886704;28;20094;-70
2022/08/02 11:13:54;;;;;;;4.97;2.50;;;;;;;28.69;43.59;100479.59;20886943;28;20049;-70
2022/08/02 11:23:55;;;;;;;4.60;2.13;;;;;;;29.14;43.02;100471.88;20892188;28;20044;-70
2022/08/02 11:33:56;;;;;;;7.00;2.55;;;;;;;27.83;43.14;100459.41;20900643;28;20037;-70
2022/08/02 11:43:58;;;;;;;4.45;2.20;;;;;;;28.30;43.02;100460.59;20983472;28;20477;-70
2022/08/02 11:53:59;;;;;;;4.22;2.38;;;;;;;28.22;41.95;100459.56;20982226;28;20729;-70
2022/08/02 12:04:01;;;;;;;3.90;1.65;;;;;;;28.83;38.37;100454.94;20981102;28;20051;-70
2022/08/02 12:14:02;;;;;;;6.88;2.05;;;;;;;28.39;40.02;100453.59;20980514;28;20097;-69
2022/08/02 12:24:04;;;;;;;4.32;2.03;;;;;;;27.98;42.30;100452.72;20979077;28;20469;-69
2022/08/02 12:34:05;;;;;;;4.18;2.17;;;;;;;28.26;40.18;100440.31;20978424;28;20048;-69
2022/08/02 12:44:06;;;;;;;4.20;2.00;;;;;;;28.75;38.79;100435.94;20932199;28;20041;-71
2022/08/02 12:54:08;;;;;;;3.83;2.05;;;;;;;28.75;37.13;100419.78;20895945;28;20048;-70
2022/08/02 13:04:10;;;;;;;5.20;1.97;;;;;;;29.22;38.29;100425.31;20894419;28;20449;-72
2022/08/02 13:14:16;;;;;;;4.85;1.48;;;;;;;28.84;34.36;100404.56;20893279;28;20044;-70
2022/08/02 13:24:17;;;;;;;3.35;1.67;;;;;;;29.09;34.98;100395.13;20894105;28;20744;-70
2022/08/02 13:34:39;;;;;;;3.22;1.67;;;;;;;28.95;37.21;100387.47;20972267;28;20555;-70
2022/08/02 13:44:40;;;;;;;3.38;1.83;;;;;;;29.04;36.54;100375.81;20973960;28;20052;-70
2022/08/02 13:54:41;;;;;;;3.00;1.90;;;;;;;28.67;35.97;100370.28;20973320;28;20238;-69
2022/08/02 14:04:43;;;;;;;3.38;1.40;;;;;;;28.87;33.16;100358.47;20924625;28;20084;-69
2022/08/02 14:14:44;;;;;;;2.85;1.58;;;;;;;29.09;31.95;100351.97;20889756;28;20045;-69
2022/08/02 14:24:45;;;;;;;2.92;1.30;;;;;;;29.10;31.86;100353.66;20952389;28;20063;-69
2022/08/02 14:34:47;;;;;;;2.72;1.30;;;;;;;29.27;32.40;100352.91;20971069;28;20765;-69
2022/08/02 14:44:49;;;;;;;3.73;1.70;;;;;;;29.27;31.87;100341.28;20971594;28;20079;-70
2022/08/02 14:54:50;;;;;;;3.22;1.50;;;;;;;29.38;31.14;100317.69;20970825;28;20056;-68
2022/08/02 15:04:51;;;;;;;3.42;1.52;;;;;;;29.58;31.31;100321.19;20984753;28;20056;-69
2022/08/02 15:14:53;;;;;;;4.03;1.50;;;;;;;29.76;32.36;100313.16;20984592;28;20090;-70
2022/08/02 15:24:54;;;;;;;2.83;1.50;;;;;;;29.79;31.56;100302.03;20984574;28;20610;-70
2022/08/02 15:34:55;;;;;;;4.13;2.13;;;;;;;29.47;33.38;100296.22;20982125;28;20045;-67
2022/08/02 15:44:57;;;;;;;2.35;1.60;;;;;;;29.91;31.73;100300.00;20982358;28;20053;-67
2022/08/02 15:54:58;;;;;;;3.35;1.65;;;;;;;30.22;31.09;100292.41;20978385;28;20245;-71
2022/08/02 16:05:07;;;;;;;3.92;1.73;;;;;;;30.31;30.97;100291.50;20955685;28;20041;-68
2022/08/02 16:15:14;;;;;;;3.17;1.92;;;;;;;29.90;31.70;100292.91;20898655;28;20136;-66
2022/08/02 16:25:15;;;;;;;2.92;1.70;;;;;;;30.01;32.20;100294.53;20896531;28;20444;-66
2022/08/02 16:35:17;;;;;;;3.77;1.47;;;;;;;29.81;32.23;100291.97;20893881;28;20136;-68
2022/08/02 16:45:18;;;;;;;3.40;1.50;;;;;;;29.80;32.48;100282.19;20908630;22;20053;-78
2022/08/02 16:55:21;;;;;;;4.20;1.40;;;;;;;29.77;32.32;100271.66;20821980;28;20061;-77
2022/08/02 17:05:22;;;;;;;3.08;1.60;;;;;;;30.09;32.51;100265.78;20810599;28;20304;-77
2022/08/02 17:15:37;;;;;;;5.68;1.80;;;;;;;30.15;32.48;100269.75;20860497;28;20060;-77
2022/08/02 17:25:59;;;;;;;2.80;1.80;;;;;;;30.27;32.25;100267.66;20893880;28;20045;-77
2022/08/02 17:36:01;;;;;;;4.80;2.03;;;;;;;29.73;33.38;100270.25;20833945;28;20079;-77
2022/08/02 17:46:02;;;;;;;2.60;1.70;;;;;;;29.24;34.50;100269.63;20817283;28;20526;-77
2022/08/02 17:56:07;;;;;;;4.93;1.80;;;;;;;28.98;36.59;100268.56;20808088;28;20041;-77
2022/08/02 18:06:11;;;;;;;2.95;1.63;;;;;;;28.67;39.14;100268.72;20805894;28;20056;-77
2022/08/02 18:16:14;;;;;;;3.00;1.60;;;;;;;28.22;40.36;100271.97;20859745;28;20122;-77
2022/08/02 18:26:21;;;;;;;5.53;2.13;;;;;;;28.06;42.43;100266.28;20815510;28;20049;-77
2022/08/02 18:36:23;;;;;;;10.20;2.83;;;;;;;27.70;43.45;100271.28;20806514;28;20072;-75
2022/08/02 18:46:26;;;;;;;6.18;2.38;;;;;;;27.39;44.35;100269.59;20804975;28;20049;-74
2022/08/02 18:56:30;;;;;;;5.00;2.33;;;;;;;27.04;45.59;100277.06;20882117;28;20056;-75
2022/08/02 19:06:32;;;;;;;5.20;2.53;;;;;;;26.49;48.62;100270.16;20883810;28;20048;-76
2022/08/02 19:16:34;;;;;;;5.00;2.45;;;;;;;26.13;50.22;100282.13;20870943;28;20053;-75
2022/08/02 19:26:38;;;;;;;6.65;2.15;;;;;;;25.76;53.26;100285.13;20883210;28;20095;-75
2022/08/02 19:36:39;;;;;;;3.83;2.20;;;;;;;25.35;55.20;100286.59;20807554;28;20060;-75
2022/08/02 19:46:42;;;;;;;4.28;2.17;;;;;;;25.12;56.90;100296.44;20850408;28;20083;-75
2022/08/02 19:56:49;;;;;;;4.43;2.17;;;;;;;24.89;58.18;100302.69;20818617;28;20870;-75
2022/08/02 20:06:50;;;;;;;4.78;2.25;;;;;;;24.66;59.26;100304.44;20814248;28;20099;-75
2022/08/02 20:16:52;;;;;;;5.43;2.50;;;;;;;24.37;60.42;100312.00;20873154;28;20520;-74
2022/08/02 20:26:54;;;;;;;5.80;2.50;;;;;;;23.96;62.21;100315.88;20895339;28;20128;-75
2022/08/02 20:36:59;;;;;;;4.57;2.17;;;;;;;23.78;64.38;100304.69;20894234;28;20045;-75
2022/08/02 20:47:21;;;;;;;4.28;2.35;;;;;;;23.60;64.78;100312.16;20882198;28;20053;-75
2022/08/02 20:57:42;;;;;;;5.05;2.20;;;;;;;23.37;65.22;100307.59;20810910;28;20465;-75
2022/08/02 21:08:03;;;;;;;6.82;3.13;;;;;;;23.10;67.26;100305.06;20809765;28;20111;-75
2022/08/02 21:18:04;;;;;;;5.32;2.97;;;;;;;22.90;69.50;100303.72;20878528;28;20045;-75
2022/08/02 21:28:26;;;;;;;4.85;2.47;;;;;;;22.74;69.24;100311.91;20892023;28;20390;-75
2022/08/02 21:38:44;;;;;;;5.10;2.60;;;;;;;22.37;71.77;100316.16;20889055;28;20049;-77
2022/08/02 21:48:48;;;;;;;7.35;2.50;;;;;;;22.16;73.39;100313.97;20889910;28;20053;-77
2022/08/02 21:58:49;;;;;;;4.93;2.92;;;;;;;21.97;74.02;100308.09;20888717;28;20055;-76
2022/08/02 22:08:51;;;;;;;3.65;2.55;;;;;;;21.55;78.27;100317.00;20811020;28;20052;-76
2022/08/02 22:18:52;;;;;;;7.30;2.65;;;;;;;21.37;81.95;100332.34;20808811;28;20041;-75
2022/08/02 22:28:53;;;;;;;5.85;3.50;;;;;;;21.11;84.61;100337.38;20858605;28;20091;-76
2022/08/02 22:38:59;;;;;;;4.35;2.75;;;;;;;21.21;84.26;100341.22;20888643;28;20045;-75
2022/08/02 22:49:01;;;;;;;4.90;3.35;;;;;;;21.11;85.64;100337.38;20886327;28;20044;-74
2022/08/02 22:59:02;;;;;;;5.07;3.20;;;;;;;21.00;89.08;100337.19;20884960;28;20037;-75
2022/08/02 23:09:16;;;;;;;6.40;3.35;;;;;;;21.06;87.42;100341.28;20883568;28;20483;-76
2022/08/02 23:29:37;;;;;;;5.88;3.60;;;;;;;20.51;92.86;100356.06;20893785;28;20056;-75
2022/08/02 23:39:38;;;;;;;5.78;3.80;;;;;;;20.41;94.98;100349.47;20895843;28;20056;-75
2022/08/02 23:49:40;;;;;;;6.22;3.70;;;;;;;20.30;95.99;100344.78;20831897;28;1115491;-75
2022/08/02 23:59:41;;;;;;;6.00;3.83;;;;;;;19.98;99.07;100351.94;20821757;28;20065;-75
